Time;durP1;ratioP1;P1;durP2;ratioP2;P2;SDS_P1;SDS_P2;PMS_P1;PMS_P2;Temp;Humidity;BMP_temperature;BMP_pressure;BME280_temperature;BME280_humidity;BME280_pressure;Samples;Min_cycle;Max_cycle;Signal;HPM_P1;HPM_P2
2022/01/14 00:01:37;;;;;;;147.75;29.52;;;6.00;99.90;;;;;;4990320;28;20038;-63
2022/01/14 00:04:02;;;;;;;146.15;30.02;;;6.10;99.90;;;;;;4990286;28;20046;-64
2022/01/14 00:06:28;;;;;;;159.15;29.75;;;6.10;99.90;;;;;;4990655;28;20046;-63
2022/01/14 00:09:05;;;;;;;148.32;30.08;;;6.10;99.90;;;;;;4990798;28;20057;-64
2022/01/14 00:11:32;;;;;;;156.40;29.73;;;6.10;99.90;;;;;;4990344;28;20038;-63
2022/01/14 00:16:29;;;;;;;173.35;29.10;;;6.10;99.90;;;;;;4991464;28;20414;-63
2022/01/14 00:18:54;;;;;;;163.68;30.50;;;6.10;99.90;;;;;;4989165;28;20050;-63
2022/01/14 00:21:20;;;;;;;180.15;31.52;;;6.10;99.90;;;;;;4990211;28;20030;-64
2022/01/14 00:23:50;;;;;;;184.63;31.88;;;6.10;99.90;;;;;;4989766;28;20104;-63
2022/01/14 00:31:54;;;;;;;173.48;29.98;;;6.10;99.90;;;;;;4989833;28;20057;-63
2022/01/14 00:34:19;;;;;;;157.13;29.85;;;6.10;99.90;;;;;;4989981;28;20038;-64
2022/01/14 00:36:45;;;;;;;164.65;30.10;;;6.10;99.90;;;;;;4989753;28;20042;-64
2022/01/14 00:39:13;;;;;;;165.27;31.95;;;6.10;99.90;;;;;;4990333;28;20538;-63
2022/01/14 00:41:39;;;;;;;171.57;31.92;;;6.10;99.90;;;;;;4989538;28;20038;-64
2022/01/14 00:44:10;;;;;;;155.57;33.20;;;6.10;99.90;;;;;;4989574;28;20537;-63
2022/01/14 00:46:40;;;;;;;160.85;31.33;;;6.10;99.90;;;;;;4997311;28;20038;-64
2022/01/14 00:49:06;;;;;;;164.63;29.02;;;6.10;99.90;;;;;;5009979;28;20046;-63
2022/01/14 00:51:32;;;;;;;154.82;31.38;;;6.20;99.90;;;;;;5009315;28;20042;-64
2022/01/14 00:53:57;;;;;;;152.75;31.77;;;6.10;99.90;;;;;;5009019;28;20038;-64
2022/01/14 00:56:32;;;;;;;160.05;32.10;;;6.10;99.90;;;;;;5009009;28;20133;-64
2022/01/14 00:59:16;;;;;;;162.82;32.22;;;6.20;99.90;;;;;;5009759;28;20481;-64
2022/01/14 01:01:48;;;;;;;172.65;32.20;;;6.20;99.90;;;;;;5009101;28;20482;-63
2022/01/14 01:04:14;;;;;;;;;;;6.10;99.90;;;;;;5006951;28;20034;-64
2022/01/14 01:06:40;;;;;;;136.15;27.73;;;6.10;99.90;;;;;;5009413;28;19917;-63
2022/01/14 01:09:11;;;;;;;147.38;29.90;;;6.20;99.90;;;;;;5009699;28;20077;-63
2022/01/14 01:11:46;;;;;;;143.18;31.08;;;6.20;99.90;;;;;;5009129;28;20452;-63
2022/01/14 01:14:18;;;;;;;154.23;32.72;;;6.10;99.90;;;;;;5009200;28;20042;-63
2022/01/14 01:16:43;;;;;;;137.68;30.60;;;6.20;99.90;;;;;;5004346;28;20046;-64
2022/01/14 01:19:10;;;;;;;142.80;29.90;;;6.10;99.90;;;;;;4989522;28;20053;-64
2022/01/14 01:21:36;;;;;;;146.38;31.13;;;6.20;99.90;;;;;;4989382;28;20038;-63
2022/01/14 01:24:02;;;;;;;149.75;33.30;;;6.20;99.90;;;;;;4989219;28;20046;-63
2022/01/14 01:26:33;;;;;;;126.90;30.58;;;6.20;99.90;;;;;;4989796;28;20081;-64
2022/01/14 01:29:17;;;;;;;134.57;30.85;;;6.20;99.90;;;;;;4989858;28;20038;-63
2022/01/14 01:31:45;;;;;;;141.63;31.02;;;6.20;99.90;;;;;;4988883;28;20042;-64
2022/01/14 01:34:23;;;;;;;130.30;30.20;;;6.20;99.90;;;;;;4997535;28;20057;-64
2022/01/14 01:36:53;;;;;;;129.23;29.75;;;6.20;99.90;;;;;;4988359;28;20388;-63
2022/01/14 01:39:22;;;;;;;127.47;30.65;;;6.20;99.90;;;;;;4989676;28;20051;-63
2022/01/14 01:41:50;;;;;;;133.80;30.45;;;6.20;99.90;;;;;;4989008;28;20510;-64
2022/01/14 01:44:18;;;;;;;114.57;28.98;;;6.20;99.90;;;;;;4987866;28;20042;-64
2022/01/14 01:46:47;;;;;;;125.40;30.85;;;6.20;99.90;;;;;;4988383;28;20517;-64
2022/01/14 01:49:18;;;;;;;118.00;28.98;;;6.20;99.90;;;;;;4992602;28;20038;-64
2022/01/14 01:51:46;;;;;;;128.75;31.23;;;6.20;99.90;;;;;;4992743;28;20096;-64
2022/01/14 01:54:13;;;;;;;121.10;28.80;;;6.20;99.90;;;;;;4991575;28;20046;-64
2022/01/14 01:56:39;;;;;;;121.85;28.08;;;6.20;99.90;;;;;;4992919;28;20660;-63
2022/01/14 01:59:05;;;;;;;120.10;29.88;;;6.20;99.90;;;;;;4992829;28;20046;-64
2022/01/14 02:01:31;;;;;;;117.40;28.75;;;6.20;99.90;;;;;;4992714;28;20493;-64
2022/01/14 02:03:57;;;;;;;114.18;29.67;;;6.20;99.90;;;;;;4992718;28;20040;-64
2022/01/14 02:06:23;;;;;;;116.35;29.52;;;6.20;99.90;;;;;;4992585;28;20506;-63
2022/01/14 02:08:49;;;;;;;105.45;28.40;;;6.20;99.90;;;;;;4992856;28;20041;-63
2022/01/14 02:11:16;;;;;;;104.45;28.45;;;6.20;99.90;;;;;;4992336;28;20042;-63
2022/01/14 02:13:42;;;;;;;111.85;29.08;;;6.20;99.90;;;;;;4992468;28;20042;-63
2022/01/14 02:18:39;;;;;;;109.82;28.30;;;6.20;99.90;;;;;;5031050;23;20061;-65
2022/01/14 02:24:09;;;;;;;103.50;27.10;;;6.20;99.90;;;;;;5010822;28;20527;-64
2022/01/14 02:26:48;;;;;;;112.47;30.23;;;6.30;99.90;;;;;;4994349;28;20046;-64
2022/01/14 02:29:14;;;;;;;113.60;28.52;;;6.30;99.90;;;;;;4992609;28;20073;-63
2022/01/14 02:31:40;;;;;;;122.22;29.50;;;6.20;99.90;;;;;;4974747;28;20049;-63
2022/01/14 02:34:06;;;;;;;111.30;28.00;;;6.30;99.90;;;;;;4991851;28;20492;-63
2022/01/14 02:36:32;;;;;;;105.35;27.45;;;6.20;99.90;;;;;;4992442;28;20057;-63
2022/01/14 02:38:59;;;;;;;110.35;28.73;;;6.30;99.90;;;;;;4990801;28;20494;-65
2022/01/14 02:41:25;;;;;;;102.65;27.88;;;6.20;99.90;;;;;;4992118;28;20521;-64
2022/01/14 02:43:50;;;;;;;111.38;28.52;;;6.20;99.90;;;;;;4991797;28;20034;-64
2022/01/14 02:46:16;;;;;;;102.25;28.20;;;6.30;99.90;;;;;;4992291;28;20042;-63
2022/01/14 02:48:42;;;;;;;115.60;28.05;;;6.20;99.90;;;;;;4974253;28;20046;-63
2022/01/14 02:51:11;;;;;;;95.30;27.75;;;6.20;99.90;;;;;;4972390;28;20126;-64
2022/01/14 02:56:05;;;;;;;101.88;28.77;;;6.30;99.90;;;;;;4988493;28;20414;-63
2022/01/14 02:58:32;;;;;;;104.32;28.63;;;6.30;99.90;;;;;;4972609;28;20050;-64
2022/01/14 03:01:00;;;;;;;95.57;27.13;;;6.30;99.90;;;;;;4971561;28;20037;-64
2022/01/14 03:03:28;;;;;;;92.80;26.65;;;6.30;99.90;;;;;;4971803;28;20506;-65
2022/01/14 03:05:54;;;;;;;101.18;26.88;;;6.30;99.90;;;;;;4991086;28;20073;-65
2022/01/14 03:08:20;;;;;;;104.43;27.27;;;6.30;99.90;;;;;;4974199;28;20050;-63
2022/01/14 03:10:51;;;;;;;103.95;28.20;;;6.30;99.90;;;;;;4974028;28;20097;-64
2022/01/14 03:13:16;;;;;;;110.43;27.95;;;6.30;99.90;;;;;;4989672;28;20046;-64
2022/01/14 03:15:42;;;;;;;106.47;26.63;;;6.30;99.90;;;;;;4991602;28;20045;-65
2022/01/14 03:18:07;;;;;;;105.63;26.88;;;6.30;99.90;;;;;;4991319;28;20600;-63
2022/01/14 03:20:46;;;;;;;97.90;26.00;;;6.30;99.90;;;;;;4975124;28;20057;-64
2022/01/14 03:23:13;;;;;;;105.95;27.33;;;6.30;99.90;;;;;;4986300;28;20043;-63
2022/01/14 03:25:49;;;;;;;99.65;27.00;;;6.30;99.90;;;;;;4972260;28;20046;-64
2022/01/14 03:28:22;;;;;;;106.57;27.13;;;6.30;99.90;;;;;;4973120;28;20035;-63
2022/01/14 03:30:49;;;;;;;104.70;27.67;;;6.30;99.90;;;;;;4971793;28;20118;-63
2022/01/14 03:33:15;;;;;;;110.03;27.70;;;6.30;99.90;;;;;;4971340;28;20121;-64
2022/01/14 03:35:41;;;;;;;96.82;26.65;;;6.30;99.90;;;;;;4971936;28;20118;-63
2022/01/14 03:38:06;;;;;;;103.90;28.13;;;6.30;99.90;;;;;;4954436;28;20070;-63
2022/01/14 03:40:32;;;;;;;100.35;27.92;;;6.30;99.90;;;;;;4971625;28;20079;-64
2022/01/14 03:42:58;;;;;;;98.30;27.73;;;6.30;99.90;;;;;;4953514;28;20415;-64
2022/01/14 03:45:23;;;;;;;98.18;27.33;;;6.30;99.90;;;;;;4973032;28;20376;-64
2022/01/14 03:47:49;;;;;;;96.20;27.23;;;6.30;99.90;;;;;;4971738;28;20059;-63
2022/01/14 03:50:14;;;;;;;104.97;27.65;;;6.30;99.90;;;;;;4971676;28;20042;-63
2022/01/14 03:52:40;;;;;;;98.13;28.27;;;6.30;99.90;;;;;;4970494;28;20039;-63
2022/01/14 03:55:06;;;;;;;106.60;28.65;;;6.30;99.90;;;;;;4971524;28;20035;-63
2022/01/14 03:57:31;;;;;;;101.47;28.58;;;6.30;99.90;;;;;;4953850;28;20066;-63
2022/01/14 03:59:57;;;;;;;101.20;28.40;;;6.30;99.90;;;;;;4972083;28;20066;-63
2022/01/14 04:02:22;;;;;;;93.80;27.00;;;6.30;99.90;;;;;;4953644;28;20034;-63
2022/01/14 04:04:48;;;;;;;100.20;27.42;;;6.30;99.90;;;;;;4971386;28;20065;-64
2022/01/14 04:07:13;;;;;;;103.47;28.60;;;6.30;99.90;;;;;;4971498;28;20043;-64
2022/01/14 04:09:40;;;;;;;104.90;28.50;;;6.30;99.90;;;;;;4971100;28;20081;-63
2022/01/14 04:12:15;;;;;;;102.90;28.52;;;6.30;99.90;;;;;;4969558;28;20050;-63
2022/01/14 04:17:10;;;;;;;86.70;28.15;;;6.30;99.90;;;;;;4972229;28;20055;-64
2022/01/14 04:19:35;;;;;;;98.60;29.30;;;6.30;99.90;;;;;;4986012;28;20039;-63
2022/01/14 04:22:01;;;;;;;100.22;29.60;;;6.30;99.90;;;;;;4970463;28;20043;-63
2022/01/14 04:24:26;;;;;;;103.80;28.40;;;6.30;99.90;;;;;;4970753;28;20086;-63
2022/01/14 04:26:52;;;;;;;101.10;27.83;;;6.30;99.90;;;;;;4970911;28;20046;-64
2022/01/14 04:29:17;;;;;;;93.88;27.52;;;6.30;99.90;;;;;;4970957;28;20039;-64
2022/01/14 04:31:43;;;;;;;96.03;27.45;;;6.30;99.90;;;;;;4970623;28;20078;-64
2022/01/14 04:34:09;;;;;;;89.47;27.08;;;6.30;99.90;;;;;;4981802;28;20049;-64
2022/01/14 04:36:34;;;;;;;85.00;26.23;;;6.30;99.90;;;;;;4990539;28;20055;-64
2022/01/14 04:39:00;;;;;;;82.43;25.13;;;6.30;99.90;;;;;;4990172;28;20030;-64
2022/01/14 04:41:25;;;;;;;92.53;26.02;;;6.30;99.90;;;;;;4989665;28;20117;-64
2022/01/14 04:43:51;;;;;;;83.40;24.75;;;6.40;99.90;;;;;;4989622;28;20038;-64
2022/01/14 04:49:20;;;;;;;79.47;24.92;;;6.30;99.90;;;;;;4927855;29;20111;-63
2022/01/14 04:51:46;;;;;;;80.53;25.23;;;6.30;99.90;;;;;;4929158;29;20145;-63
2022/01/14 04:54:12;;;;;;;87.70;26.02;;;6.30;99.90;;;;;;4950424;28;20410;-63
2022/01/14 04:56:37;;;;;;;85.57;26.67;;;6.30;99.90;;;;;;4990185;28;20073;-64
2022/01/14 04:59:03;;;;;;;88.18;25.15;;;6.30;99.90;;;;;;4989779;28;20491;-63
2022/01/14 05:01:29;;;;;;;91.80;26.17;;;6.30;99.90;;;;;;4972357;28;20636;-64
2022/01/14 05:03:57;;;;;;;84.15;25.27;;;6.30;99.90;;;;;;4989137;28;20034;-64
2022/01/14 05:06:22;;;;;;;94.00;25.70;;;6.30;99.90;;;;;;4970736;28;20052;-63
2022/01/14 05:08:48;;;;;;;96.07;26.42;;;6.20;99.90;;;;;;4972566;28;20125;-63
2022/01/14 05:13:42;;;;;;;91.78;26.67;;;6.20;99.90;;;;;;4969744;28;20071;-65
2022/01/14 05:16:07;;;;;;;100.32;28.42;;;6.20;99.90;;;;;;4970460;28;20122;-65
2022/01/14 05:18:34;;;;;;;88.32;25.50;;;6.20;99.90;;;;;;4970375;28;20090;-64
2022/01/14 05:21:00;;;;;;;96.20;25.77;;;6.20;99.90;;;;;;4970088;28;20559;-64
2022/01/14 05:23:25;;;;;;;95.97;24.17;;;6.20;99.90;;;;;;4972786;28;20150;-63
2022/01/14 05:25:51;;;;;;;94.72;24.77;;;6.10;99.90;;;;;;4974381;28;20672;-63
2022/01/14 05:28:16;;;;;;;89.35;25.63;;;6.10;99.90;;;;;;4956887;28;20129;-64
2022/01/14 05:30:42;;;;;;;89.35;25.52;;;6.10;99.90;;;;;;4974141;28;20129;-64
2022/01/14 05:33:08;;;;;;;88.13;24.92;;;6.10;99.90;;;;;;4988594;28;20063;-64
2022/01/14 05:35:33;;;;;;;96.15;24.63;;;6.10;99.90;;;;;;4973783;28;20063;-64
2022/01/14 05:37:59;;;;;;;89.68;26.05;;;6.10;99.90;;;;;;4974280;28;20042;-64
2022/01/14 05:40:27;;;;;;;79.40;24.17;;;6.10;99.90;;;;;;4975045;28;20450;-63
2022/01/14 05:42:52;;;;;;;82.40;25.08;;;6.10;99.90;;;;;;4973187;28;20595;-64
2022/01/14 05:45:18;;;;;;;82.28;25.27;;;6.10;99.90;;;;;;4973693;28;20039;-63
2022/01/14 05:47:44;;;;;;;81.43;26.15;;;6.10;99.90;;;;;;4973974;28;20043;-65
2022/01/14 05:50:12;;;;;;;87.20;26.08;;;6.10;99.90;;;;;;4973776;28;20414;-64
2022/01/14 05:52:38;;;;;;;74.80;24.05;;;6.10;99.90;;;;;;4988323;28;20046;-64
2022/01/14 05:55:06;;;;;;;82.00;24.67;;;6.10;99.90;;;;;;4974633;28;20049;-63
2022/01/14 05:57:34;;;;;;;71.30;25.20;;;6.10;99.90;;;;;;4973708;28;20046;-63
2022/01/14 06:00:04;;;;;;;75.68;24.17;;;6.10;99.90;;;;;;4973637;28;20078;-63
2022/01/14 06:02:30;;;;;;;76.78;24.48;;;6.10;99.90;;;;;;4988566;28;20042;-63
2022/01/14 06:04:55;;;;;;;73.57;25.50;;;6.10;99.90;;;;;;4992879;28;20536;-63
2022/01/14 06:07:21;;;;;;;72.47;24.73;;;6.10;99.90;;;;;;4993087;28;20082;-64
2022/01/14 06:09:46;;;;;;;72.15;25.40;;;6.10;99.90;;;;;;4975362;28;20076;-65
2022/01/14 06:12:12;;;;;;;74.90;27.67;;;6.10;99.90;;;;;;4990823;28;20038;-63
2022/01/14 06:14:37;;;;;;;67.20;22.48;;;6.10;99.90;;;;;;4992530;28;20049;-64
2022/01/14 06:17:03;;;;;;;67.63;24.25;;;6.10;99.90;;;;;;4992432;28;20050;-65
2022/01/14 06:19:29;;;;;;;70.05;24.27;;;6.10;99.90;;;;;;4992593;28;20114;-65
2022/01/14 06:21:56;;;;;;;70.13;24.08;;;6.10;99.90;;;;;;4991483;28;20042;-65
2022/01/14 06:24:23;;;;;;;68.20;24.40;;;6.10;99.90;;;;;;4989486;28;20053;-64
2022/01/14 06:26:48;;;;;;;71.50;24.65;;;6.10;99.90;;;;;;4990019;28;20038;-64
2022/01/14 06:29:14;;;;;;;73.80;24.52;;;6.10;99.90;;;;;;4970668;28;20577;-64
2022/01/14 06:31:40;;;;;;;71.55;25.52;;;6.10;99.90;;;;;;4971694;28;20049;-63
2022/01/14 06:34:05;;;;;;;65.82;23.83;;;6.10;99.90;;;;;;4988387;28;20093;-64
2022/01/14 06:36:31;;;;;;;73.63;26.08;;;6.10;99.90;;;;;;4989587;28;20057;-65
2022/01/14 06:38:56;;;;;;;70.70;25.73;;;6.10;99.90;;;;;;4980883;28;20030;-64
2022/01/14 06:41:22;;;;;;;66.88;23.95;;;6.20;99.90;;;;;;4969848;28;20113;-65
2022/01/14 06:43:47;;;;;;;72.18;25.48;;;6.20;99.90;;;;;;4970602;28;20038;-64
2022/01/14 06:46:13;;;;;;;62.40;23.02;;;6.20;99.90;;;;;;4952733;28;20047;-65
2022/01/14 06:48:38;;;;;;;63.83;25.23;;;6.20;99.90;;;;;;4969973;28;20123;-65
2022/01/14 06:51:04;;;;;;;58.70;22.48;;;6.20;99.90;;;;;;4969693;28;20047;-64
2022/01/14 06:53:29;;;;;;;59.35;22.48;;;6.20;99.90;;;;;;4969343;28;20129;-65
2022/01/14 06:55:55;;;;;;;64.43;23.08;;;6.20;99.90;;;;;;4952579;28;20051;-65
2022/01/14 06:58:21;;;;;;;61.53;23.23;;;6.20;99.90;;;;;;4952628;28;20041;-65
2022/01/14 07:00:46;;;;;;;59.45;22.42;;;6.30;99.90;;;;;;4970835;28;20050;-65
2022/01/14 07:03:12;;;;;;;55.00;22.08;;;6.30;99.90;;;;;;4969022;28;20038;-65
2022/01/14 07:05:37;;;;;;;55.60;21.67;;;6.20;99.90;;;;;;4969929;28;20035;-64
2022/01/14 07:08:03;;;;;;;57.40;22.50;;;6.20;99.90;;;;;;4970178;28;20517;-65
2022/01/14 07:10:34;;;;;;;56.17;21.75;;;6.30;99.90;;;;;;4988709;28;20572;-65
2022/01/14 07:13:00;;;;;;;54.80;22.70;;;6.30;99.90;;;;;;4988228;28;20065;-63
2022/01/14 07:15:25;;;;;;;60.88;22.13;;;6.30;99.90;;;;;;4987735;28;20064;-64
2022/01/14 07:17:51;;;;;;;56.33;22.08;;;6.30;99.90;;;;;;4986859;28;20042;-65
2022/01/14 07:20:17;;;;;;;56.60;22.73;;;6.30;99.90;;;;;;4989399;28;20043;-65
2022/01/14 07:22:46;;;;;;;55.92;21.80;;;6.30;99.90;;;;;;4988946;28;20046;-64
2022/01/14 07:25:12;;;;;;;62.65;24.42;;;6.30;99.90;;;;;;4971657;28;20038;-64
2022/01/14 07:27:38;;;;;;;53.15;22.55;;;6.30;99.90;;;;;;4989356;28;20052;-66
2022/01/14 07:30:05;;;;;;;49.78;22.17;;;6.30;99.90;;;;;;4988789;28;20042;-65
2022/01/14 07:32:31;;;;;;;57.65;23.67;;;6.30;99.90;;;;;;4952161;28;20078;-65
2022/01/14 07:34:57;;;;;;;54.40;22.55;;;6.30;99.90;;;;;;4969678;28;20074;-63
2022/01/14 07:37:22;;;;;;;53.20;23.52;;;6.30;99.90;;;;;;4979098;28;20049;-64
2022/01/14 07:39:48;;;;;;;50.78;21.80;;;6.30;99.90;;;;;;4988897;28;20038;-64
2022/01/14 07:42:14;;;;;;;55.38;23.63;;;6.30;99.90;;;;;;4988935;28;20388;-65
2022/01/14 07:44:39;;;;;;;57.65;22.35;;;6.30;99.90;;;;;;4988529;28;20108;-65
2022/01/14 07:47:06;;;;;;;56.58;23.95;;;6.30;99.90;;;;;;4972106;28;20050;-65
2022/01/14 07:49:32;;;;;;;55.25;23.05;;;6.30;99.90;;;;;;4990287;28;20038;-65
2022/01/14 07:51:58;;;;;;;52.70;23.90;;;6.30;99.90;;;;;;4990999;28;20042;-65
2022/01/14 07:54:25;;;;;;;46.80;22.48;;;6.30;99.90;;;;;;4989893;28;20034;-65
2022/01/14 07:56:53;;;;;;;52.55;22.55;;;6.40;99.90;;;;;;4973782;28;20130;-66
2022/01/14 07:59:21;;;;;;;54.70;23.73;;;6.30;99.90;;;;;;4991159;28;20108;-66
2022/01/14 08:01:48;;;;;;;52.13;22.50;;;6.30;99.90;;;;;;4991183;28;20096;-65
2022/01/14 08:04:15;;;;;;;53.72;24.40;;;6.40;99.90;;;;;;4991093;28;20038;-65
2022/01/14 08:06:46;;;;;;;46.65;20.60;;;6.30;99.90;;;;;;4972978;28;20050;-65
2022/01/14 08:09:13;;;;;;;48.60;21.98;;;6.30;99.90;;;;;;4985646;28;20129;-65
2022/01/14 08:11:39;;;;;;;52.42;22.15;;;6.40;99.90;;;;;;4970237;28;20473;-65
2022/01/14 08:14:05;;;;;;;50.72;22.30;;;6.40;99.90;;;;;;4969714;28;20062;-65
2022/01/14 08:16:30;;;;;;;46.88;22.83;;;6.40;99.90;;;;;;4969746;28;20043;-65
2022/01/14 08:18:56;;;;;;;44.75;22.17;;;6.40;99.90;;;;;;5038673;23;20085;-63
2022/01/14 08:21:21;;;;;;;50.33;22.73;;;6.40;99.90;;;;;;4991508;28;20128;-63
2022/01/14 08:23:47;;;;;;;49.75;21.65;;;6.40;99.90;;;;;;5003022;28;20037;-63
2022/01/14 08:26:13;;;;;;;51.47;23.00;;;6.40;99.90;;;;;;4990768;28;20053;-63
2022/01/14 08:28:39;;;;;;;46.05;22.08;;;6.50;99.90;;;;;;4990567;28;20046;-63
2022/01/14 08:31:04;;;;;;;48.22;21.90;;;6.40;99.90;;;;;;4990991;28;20034;-63
2022/01/14 08:33:30;;;;;;;46.42;21.90;;;6.50;99.90;;;;;;4989418;28;20081;-63
2022/01/14 08:35:55;;;;;;;47.60;21.50;;;6.50;99.90;;;;;;4990643;28;20050;-63
2022/01/14 08:38:21;;;;;;;48.50;22.08;;;6.50;99.90;;;;;;4989311;28;20089;-64
2022/01/14 08:40:47;;;;;;;46.40;21.27;;;6.50;99.90;;;;;;4991629;28;20421;-64
2022/01/14 08:43:12;;;;;;;43.83;21.70;;;6.50;99.90;;;;;;4990411;28;20463;-63
2022/01/14 08:45:38;;;;;;;51.92;21.35;;;6.50;99.90;;;;;;4990766;28;20034;-64
2022/01/14 08:48:04;;;;;;;41.90;21.60;;;6.60;99.90;;;;;;4990587;28;20046;-64
2022/01/14 08:50:35;;;;;;;48.63;20.45;;;6.60;99.90;;;;;;4990344;28;20502;-63
2022/01/14 08:53:01;;;;;;;41.13;21.48;;;6.60;99.90;;;;;;4990447;28;20038;-64
2022/01/14 08:55:27;;;;;;;47.70;21.98;;;6.60;99.90;;;;;;4990239;28;20061;-64
2022/01/14 08:57:53;;;;;;;44.50;21.17;;;6.60;99.90;;;;;;4990841;28;20035;-64
2022/01/14 09:00:21;;;;;;;44.60;21.05;;;6.70;99.90;;;;;;4990183;28;20038;-64
2022/01/14 09:02:47;;;;;;;42.85;20.17;;;6.70;99.90;;;;;;4990237;28;20093;-64
2022/01/14 09:05:13;;;;;;;42.63;20.60;;;6.70;99.90;;;;;;4990244;28;20043;-64
2022/01/14 09:07:39;;;;;;;44.40;19.95;;;6.80;99.90;;;;;;4990184;28;20046;-64
2022/01/14 09:10:06;;;;;;;40.00;18.25;;;6.80;99.90;;;;;;4994385;28;20044;-64
2022/01/14 09:12:33;;;;;;;42.42;19.52;;;6.80;99.90;;;;;;5009591;28;20068;-64
2022/01/14 09:15:00;;;;;;;36.65;18.38;;;6.90;99.90;;;;;;5009770;28;20402;-64
2022/01/14 09:17:26;;;;;;;34.83;18.13;;;6.90;99.90;;;;;;5009333;28;20551;-64
2022/01/14 09:19:52;;;;;;;39.13;19.08;;;7.00;99.90;;;;;;5009743;28;20113;-64
2022/01/14 09:22:18;;;;;;;38.60;18.90;;;7.00;99.90;;;;;;5009468;28;20121;-63
2022/01/14 09:24:46;;;;;;;35.85;17.23;;;7.00;99.90;;;;;;5009428;28;20112;-63
2022/01/14 09:27:13;;;;;;;37.97;17.27;;;7.10;99.90;;;;;;5007971;28;20073;-63
2022/01/14 09:29:38;;;;;;;34.50;17.02;;;7.10;99.90;;;;;;5009791;28;20050;-63
2022/01/14 09:32:05;;;;;;;34.70;16.92;;;7.10;99.90;;;;;;5009637;28;20438;-63
2022/01/14 09:34:31;;;;;;;36.60;16.52;;;7.20;99.90;;;;;;5009541;28;20042;-63
2022/01/14 09:36:57;;;;;;;32.78;16.00;;;7.20;99.90;;;;;;5009464;28;20044;-63
2022/01/14 09:39:22;;;;;;;30.70;15.48;;;7.20;99.90;;;;;;5009312;28;20037;-64
2022/01/14 09:41:48;;;;;;;36.88;15.50;;;7.30;99.90;;;;;;5009742;28;20657;-64
2022/01/14 09:44:15;;;;;;;36.28;16.23;;;7.30;99.90;;;;;;4992112;28;20396;-64
2022/01/14 09:46:41;;;;;;;32.75;14.93;;;7.30;99.90;;;;;;4990064;28;20038;-64
2022/01/14 09:49:07;;;;;;;35.33;16.05;;;7.40;99.90;;;;;;4989844;28;20165;-63
2022/01/14 09:51:32;;;;;;;32.95;14.77;;;7.40;99.90;;;;;;4989675;28;20034;-63
2022/01/14 09:53:58;;;;;;;38.30;16.15;;;7.40;99.90;;;;;;4989556;28;20046;-64
2022/01/14 09:56:24;;;;;;;35.65;16.02;;;7.50;99.90;;;;;;4989823;28;20042;-63
2022/01/14 09:58:51;;;;;;;30.83;15.13;;;7.50;99.90;;;;;;4990959;28;20031;-63
2022/01/14 10:01:22;;;;;;;33.17;16.25;;;7.50;99.90;;;;;;4989714;28;20453;-63
2022/01/14 10:04:02;;;;;;;31.88;14.98;;;7.50;99.90;;;;;;4989761;28;20117;-63
2022/01/14 10:06:44;;;;;;;30.23;15.27;;;7.60;99.90;;;;;;4989595;28;20041;-63
2022/01/14 10:09:24;;;;;;;34.53;16.15;;;7.60;99.90;;;;;;4990364;28;20042;-62
2022/01/14 10:12:04;;;;;;;32.05;16.45;;;7.60;99.90;;;;;;5004612;28;20117;-63
2022/01/14 10:14:29;;;;;;;35.10;16.13;;;7.60;99.90;;;;;;4995494;28;20077;-63
2022/01/14 10:16:57;;;;;;;30.70;16.15;;;7.70;99.90;;;;;;5012480;28;20081;-63
2022/01/14 10:19:33;;;;;;;34.63;15.02;;;7.60;99.90;;;;;;5012536;28;20116;-63
2022/01/14 10:21:58;;;;;;;34.17;14.80;;;7.70;99.90;;;;;;5012816;28;20038;-61
2022/01/14 10:24:27;;;;;;;34.53;16.33;;;7.70;99.90;;;;;;5012505;28;20038;-61
2022/01/14 10:26:58;;;;;;;31.33;15.05;;;7.70;99.90;;;;;;5012813;28;20038;-61
2022/01/14 10:29:39;;;;;;;31.17;16.27;;;7.70;99.90;;;;;;5001652;28;20053;-63
2022/01/14 10:32:08;;;;;;;33.70;15.68;;;7.70;99.90;;;;;;5008842;28;20038;-63
2022/01/14 10:34:35;;;;;;;31.63;15.25;;;7.80;99.90;;;;;;5012522;28;20030;-63
2022/01/14 10:37:14;;;;;;;30.98;14.43;;;7.80;99.90;;;;;;5012442;28;20037;-63
2022/01/14 10:39:45;;;;;;;31.88;15.20;;;7.80;99.90;;;;;;5012537;28;20041;-66
2022/01/14 10:42:23;;;;;;;34.72;16.80;;;7.80;99.90;;;;;;5012532;28;20040;-64
2022/01/14 10:44:49;;;;;;;31.55;14.52;;;7.80;99.90;;;;;;5010939;28;20042;-64
2022/01/14 10:47:20;;;;;;;31.65;14.68;;;7.80;99.90;;;;;;4992654;28;20045;-64
2022/01/14 10:49:48;;;;;;;29.25;13.98;;;7.80;99.90;;;;;;4992605;28;20093;-64
2022/01/14 10:52:14;;;;;;;23.67;13.32;;;7.80;99.90;;;;;;4992368;28;20100;-64
2022/01/14 10:54:52;;;;;;;27.77;12.52;;;7.80;99.90;;;;;;4992672;28;20502;-64
2022/01/14 10:57:23;;;;;;;25.05;12.10;;;7.80;99.90;;;;;;4992411;28;20639;-64
2022/01/14 10:59:51;;;;;;;23.50;13.25;;;7.90;99.90;;;;;;4992364;28;20570;-64
2022/01/14 11:02:37;;;;;;;22.73;12.18;;;7.90;99.90;;;;;;5000077;28;20042;-64
2022/01/14 11:05:07;;;;;;;22.98;11.88;;;7.90;99.90;;;;;;5010170;28;20053;-64
2022/01/14 11:07:33;;;;;;;24.80;11.18;;;7.90;99.90;;;;;;5011770;28;20119;-65
2022/01/14 11:10:00;;;;;;;23.17;11.82;;;7.90;99.90;;;;;;5011725;28;20038;-64
2022/01/14 11:12:26;;;;;;;25.50;10.55;;;7.90;99.90;;;;;;5010830;28;20397;-63
2022/01/14 11:14:51;;;;;;;19.15;10.40;;;7.90;99.90;;;;;;5011622;28;20486;-64
2022/01/14 11:17:17;;;;;;;26.92;11.25;;;7.90;99.90;;;;;;5011221;28;20053;-62
2022/01/14 11:19:46;;;;;;;24.40;11.35;;;8.00;99.90;;;;;;4993702;28;20034;-63
2022/01/14 11:24:57;;;;;;;22.63;9.45;;;8.00;99.90;;;;;;4992066;28;20061;-63
2022/01/14 11:27:24;;;;;;;22.30;8.45;;;8.00;99.90;;;;;;4991789;28;20042;-63
2022/01/14 11:29:51;;;;;;;21.60;8.65;;;8.00;99.90;;;;;;4991585;28;20045;-64
2022/01/14 11:32:17;;;;;;;17.90;8.80;;;8.00;99.90;;;;;;4991936;28;20089;-64
2022/01/14 11:34:45;;;;;;;29.05;9.73;;;8.00;99.90;;;;;;4998980;28;20062;-64
2022/01/14 11:37:30;;;;;;;21.17;9.23;;;8.10;99.90;;;;;;5011410;28;20117;-63
2022/01/14 11:39:58;;;;;;;20.20;10.10;;;8.00;99.90;;;;;;5011566;28;20100;-64
2022/01/14 11:42:49;;;;;;;18.55;8.80;;;8.00;99.90;;;;;;5011534;28;20120;-64
2022/01/14 11:45:15;;;;;;;19.80;9.15;;;8.00;99.90;;;;;;5010300;28;20442;-64
2022/01/14 11:47:43;;;;;;;24.40;9.30;;;8.00;99.90;;;;;;5011268;28;20048;-63
2022/01/14 11:50:18;;;;;;;20.70;8.57;;;7.90;99.90;;;;;;5010336;28;20121;-64
2022/01/14 11:52:44;;;;;;;22.35;9.32;;;7.90;99.90;;;;;;4990266;28;20434;-64
2022/01/14 11:55:22;;;;;;;17.65;7.85;;;7.90;99.90;;;;;;4991681;28;20038;-64
2022/01/14 11:58:09;;;;;;;22.00;8.60;;;7.90;99.90;;;;;;4991530;28;20370;-64
2022/01/14 12:00:41;;;;;;;19.50;8.57;;;7.90;99.90;;;;;;4991637;28;20449;-64
2022/01/14 12:03:06;;;;;;;15.93;7.60;;;8.00;99.90;;;;;;4991157;28;20707;-64
2022/01/14 12:05:33;;;;;;;18.58;8.07;;;8.00;99.90;;;;;;4991374;28;20129;-63
2022/01/14 12:08:05;;;;;;;14.77;7.40;;;7.90;99.90;;;;;;4994625;28;20514;-63
2022/01/14 12:10:39;;;;;;;16.13;6.90;;;8.00;99.90;;;;;;4997289;28;20612;-63
2022/01/14 12:13:38;;;;;;;18.55;8.18;;;7.90;99.90;;;;;;5000363;28;20106;-63
2022/01/14 12:16:06;;;;;;;23.45;7.72;;;8.00;99.90;;;;;;4990208;28;20046;-63
2022/01/14 12:18:56;;;;;;;19.80;7.35;;;8.00;99.90;;;;;;4989505;28;20497;-63
2022/01/14 12:21:43;;;;;;;15.55;7.47;;;8.00;99.90;;;;;;4990151;28;20135;-63
2022/01/14 12:24:15;;;;;;;18.80;7.63;;;8.10;99.90;;;;;;4990985;28;20034;-63
2022/01/14 12:27:04;;;;;;;19.25;6.63;;;8.10;99.90;;;;;;4989912;28;20063;-63
2022/01/14 12:29:39;;;;;;;20.88;7.15;;;8.10;99.90;;;;;;4990081;28;20615;-63
2022/01/14 12:32:13;;;;;;;16.40;7.07;;;8.10;99.90;;;;;;4990428;28;20046;-64
2022/01/14 12:34:44;;;;;;;16.50;6.60;;;8.10;99.90;;;;;;4990912;28;20042;-63
2022/01/14 12:37:21;;;;;;;16.02;6.57;;;8.10;99.90;;;;;;4989542;28;20046;-63
2022/01/14 12:39:51;;;;;;;13.27;6.38;;;8.10;99.90;;;;;;4990047;28;20109;-63
2022/01/14 12:42:18;;;;;;;13.65;6.45;;;8.10;99.90;;;;;;4990988;28;20034;-63
2022/01/14 12:44:46;;;;;;;15.88;7.70;;;8.10;99.90;;;;;;4990536;28;20176;-64
2022/01/14 12:47:20;;;;;;;14.43;5.93;;;8.20;99.90;;;;;;4990734;28;20074;-63
2022/01/14 12:49:47;;;;;;;17.83;6.40;;;8.20;99.90;;;;;;4991226;28;20042;-63
2022/01/14 12:52:16;;;;;;;16.05;6.85;;;8.10;99.90;;;;;;4990875;28;20049;-63
2022/01/14 12:54:46;;;;;;;21.10;7.20;;;8.10;99.90;;;;;;4990477;28;20045;-63
2022/01/14 12:57:16;;;;;;;12.50;6.13;;;8.20;99.90;;;;;;4991708;28;20073;-63
2022/01/14 12:59:45;;;;;;;13.10;6.53;;;8.20;99.90;;;;;;4990583;28;20150;-63
2022/01/14 13:02:16;;;;;;;21.13;7.20;;;8.20;99.90;;;;;;4990770;28;20039;-63
2022/01/14 13:04:42;;;;;;;12.83;6.73;;;8.20;99.90;;;;;;4990400;28;20574;-63
2022/01/14 13:07:08;;;;;;;13.48;6.43;;;8.10;99.90;;;;;;4990479;28;20046;-63